Time;durP1;ratioP1;P1;durP2;ratioP2;P2;SDS_P1;SDS_P2;PMS_P1;PMS_P2;Temp;Humidity;BMP_temperature;BMP_pressure;BME280_temperature;BME280_humidity;BME280_pressure;Samples;Min_cycle;Max_cycle;Signal;HPM_P1;HPM_P2
2023/06/26 00:00:32;;;;;;;5.80;4.37;;;20.00;94.50;;;20.64;89.08;98036.94;5024114;28;20472;-81
2023/06/26 00:03:01;;;;;;;7.63;4.50;;;19.90;94.70;;;20.59;89.42;98038.47;5024704;28;20473;-82
2023/06/26 00:05:30;;;;;;;7.73;4.83;;;19.90;94.50;;;20.52;89.71;98032.56;5025129;28;20575;-82
2023/06/26 00:08:00;;;;;;;7.60;4.90;;;19.80;94.70;;;20.50;90.09;98034.69;5023740;28;20476;-82
2023/06/26 00:10:29;;;;;;;6.93;4.87;;;19.80;95.00;;;20.46;90.16;98025.59;5024206;28;20485;-82
2023/06/26 00:12:57;;;;;;;22.20;5.10;;;19.70;94.90;;;20.44;90.08;98029.56;5025329;28;20469;-82
2023/06/26 00:15:30;;;;;;;7.77;5.30;;;19.70;94.80;;;20.42;90.23;98027.16;5025429;28;20458;-82
2023/06/26 00:18:03;;;;;;;8.17;5.30;;;19.70;94.80;;;20.35;90.59;98018.56;5024737;28;20501;-82
2023/06/26 00:20:33;;;;;;;6.27;4.73;;;19.60;95.00;;;20.31;91.14;98019.31;5023921;28;20446;-82
2023/06/26 00:23:04;;;;;;;6.97;4.73;;;19.60;95.10;;;20.21;92.03;98024.50;5024817;28;20472;-81
2023/06/26 00:25:33;;;;;;;8.87;4.70;;;19.50;95.10;;;20.11;93.13;98030.50;5023504;28;20551;-82
2023/06/26 00:28:02;;;;;;;8.80;5.40;;;19.40;95.20;;;20.02;93.99;98034.66;5023921;28;20478;-82
2023/06/26 00:30:30;;;;;;;6.10;4.50;;;19.40;95.30;;;20.03;93.58;98022.97;5025077;28;20496;-82
2023/06/26 00:33:00;;;;;;;7.30;4.33;;;19.30;95.30;;;20.04;93.09;98036.00;5023768;28;20465;-82
2023/06/26 00:35:29;;;;;;;8.70;4.93;;;19.30;95.40;;;20.06;92.63;98033.09;5024083;28;20458;-82
2023/06/26 00:37:57;;;;;;;8.33;5.80;;;19.30;95.50;;;20.05;93.02;98034.16;5022537;28;20498;-83
2023/06/26 00:40:26;;;;;;;8.23;4.97;;;19.20;95.50;;;19.96;93.92;98032.97;5023418;28;20465;-82
2023/06/26 00:42:56;;;;;;;7.97;5.53;;;19.20;95.50;;;19.98;94.12;98030.88;5024057;28;20458;-82
2023/06/26 00:45:25;;;;;;;7.87;4.73;;;19.20;95.80;;;19.93;94.52;98031.59;5023962;28;20465;-82
2023/06/26 00:48:12;;;;;;;8.13;5.70;;;19.10;95.60;;;19.87;94.36;98032.59;5024097;28;20848;-82
2023/06/26 00:50:43;;;;;;;6.30;4.70;;;19.10;95.60;;;19.80;94.44;98024.03;5024625;28;20465;-82
2023/06/26 00:53:12;;;;;;;7.33;4.87;;;19.10;95.60;;;19.76;94.96;98027.41;5023919;28;20474;-82
2023/06/26 00:55:42;;;;;;;8.13;5.43;;;19.00;95.60;;;19.73;95.35;98034.00;5024019;28;21026;-82
2023/06/26 00:58:11;;;;;;;7.50;4.70;;;19.00;95.80;;;19.68;95.56;98030.50;5023408;28;20563;-82
2023/06/26 01:00:45;;;;;;;12.20;5.10;;;18.90;95.70;;;19.56;96.72;98026.09;5023654;28;20465;-82
2023/06/26 01:03:16;;;;;;;8.30;5.50;;;18.90;95.90;;;19.63;96.24;98030.41;5028346;28;20480;-82
2023/06/26 01:05:49;;;;;;;6.17;4.37;;;18.90;95.90;;;19.62;95.58;98032.28;5028073;28;20489;-82
2023/06/26 01:08:22;;;;;;;6.73;4.43;;;18.90;95.90;;;19.58;95.81;98029.31;5027744;28;20462;-82
2023/06/26 01:10:51;;;;;;;8.10;5.43;;;18.80;95.80;;;19.54;96.13;98020.22;5027782;28;20478;-81
2023/06/26 01:13:21;;;;;;;7.07;5.10;;;18.80;95.90;;;19.49;96.59;98016.72;5028553;28;20493;-82
2023/06/26 01:15:51;;;;;;;7.90;4.77;;;18.80;96.10;;;19.43;97.40;98021.16;5026851;28;20473;-82
2023/06/26 01:18:24;;;;;;;7.87;5.20;;;18.70;96.10;;;19.39;98.00;98020.00;5026856;28;20491;-82
2023/06/26 01:21:00;;;;;;;8.13;4.87;;;18.70;96.10;;;19.37;97.71;98029.22;5027021;28;20458;-82
2023/06/26 01:23:39;;;;;;;7.97;5.10;;;18.60;96.20;;;19.32;98.12;98024.66;5027624;28;20465;-82
2023/06/26 01:26:22;;;;;;;10.20;5.70;;;18.60;96.20;;;19.31;98.08;98015.09;5027775;28;20565;-82
2023/06/26 01:28:53;;;;;;;7.23;4.87;;;18.50;96.10;;;19.25;98.49;98016.06;5026970;28;20457;-82
2023/06/26 01:31:22;;;;;;;7.70;4.77;;;18.50;96.20;;;19.25;98.38;98005.47;5026955;28;20600;-82
2023/06/26 01:33:52;;;;;;;6.50;4.40;;;18.50;96.40;;;19.16;99.34;98014.09;5027216;28;21184;-82
2023/06/26 01:36:20;;;;;;;7.90;4.00;;;18.40;96.40;;;19.19;99.28;98017.06;5026701;28;20469;-82
2023/06/26 01:38:50;;;;;;;7.13;4.87;;;18.40;96.60;;;19.20;98.80;98020.47;5025842;28;20490;-82
2023/06/26 01:41:21;;;;;;;7.50;5.20;;;18.40;96.50;;;19.18;98.50;98018.09;5025818;28;20473;-82
2023/06/26 01:44:12;;;;;;;8.67;5.00;;;18.40;96.50;;;19.18;98.74;98020.75;5025835;28;20476;-82
2023/06/26 01:46:53;;;;;;;6.80;5.10;;;18.40;96.70;;;19.17;98.39;98020.97;5026930;28;20454;-82
2023/06/26 01:49:35;;;;;;;6.30;4.50;;;18.30;96.40;;;19.12;98.62;98020.91;5027576;28;20455;-82
2023/06/26 01:52:15;;;;;;;8.90;5.07;;;18.30;96.40;;;19.10;98.95;98021.13;5027102;28;20458;-82
2023/06/26 01:54:56;;;;;;;7.50;4.23;;;18.30;96.50;;;19.10;98.90;98021.94;5028242;28;20460;-82
2023/06/26 01:57:29;;;;;;;9.67;5.47;;;18.30;96.80;;;19.07;99.65;98027.75;5027015;28;20467;-82
2023/06/26 02:00:01;;;;;;;8.23;4.87;;;18.30;96.60;;;18.99;100.00;98022.03;5026437;28;20566;-82
2023/06/26 02:02:31;;;;;;;9.00;4.43;;;18.20;96.70;;;18.93;100.00;98015.03;5026618;28;20465;-82
2023/06/26 02:05:00;;;;;;;8.60;5.27;;;18.20;96.70;;;18.90;100.00;98018.19;5026787;28;20532;-83
2023/06/26 02:07:29;;;;;;;10.40;5.60;;;18.10;96.80;;;18.90;100.00;98018.97;5027041;28;20474;-82
2023/06/26 02:09:57;;;;;;;8.63;5.63;;;18.10;96.80;;;18.84;100.00;98016.50;5026884;28;20474;-82
2023/06/26 02:12:28;;;;;;;7.13;4.93;;;18.10;96.70;;;18.76;100.00;98017.69;5025643;28;20508;-82
2023/06/26 02:14:57;;;;;;;7.00;4.93;;;18.00;96.90;;;18.73;100.00;98012.06;5026157;28;20462;-82
2023/06/26 02:17:27;;;;;;;6.20;4.53;;;18.00;96.90;;;18.74;100.00;98013.69;5024127;28;20458;-82
2023/06/26 02:19:57;;;;;;;7.90;4.63;;;18.00;97.00;;;18.74;100.00;98019.78;5025321;28;20989;-82
2023/06/26 02:22:28;;;;;;;7.13;5.03;;;17.90;97.10;;;18.70;100.00;98007.25;5024040;28;20986;-82
2023/06/26 02:24:57;;;;;;;7.23;4.60;;;17.90;97.10;;;18.64;100.00;98008.22;5025764;28;20461;-82
2023/06/26 02:27:28;;;;;;;10.50;5.03;;;17.90;97.20;;;18.55;100.00;98011.25;5025479;28;20470;-82
2023/06/26 02:29:57;;;;;;;7.80;4.57;;;17.80;97.30;;;18.55;100.00;98013.88;5026823;28;20972;-82
2023/06/26 02:32:26;;;;;;;7.90;5.00;;;17.80;97.20;;;18.51;100.00;98004.81;5023771;28;20470;-82
2023/06/26 02:34:55;;;;;;;5.77;4.47;;;17.80;97.40;;;18.48;100.00;98001.81;5026134;28;20465;-82
2023/06/26 02:37:24;;;;;;;7.47;4.17;;;17.70;97.40;;;18.46;100.00;97999.41;5026464;28;20460;-82
2023/06/26 02:39:54;;;;;;;6.00;4.50;;;17.70;97.30;;;18.47;100.00;98001.00;5025803;28;21054;-82
2023/06/26 02:42:23;;;;;;;7.73;4.73;;;17.70;97.40;;;18.47;100.00;98008.13;5027371;28;20496;-82
2023/06/26 02:44:54;;;;;;;9.73;5.83;;;17.70;97.60;;;18.49;100.00;98004.22;5026680;28;20462;-82
2023/06/26 02:47:23;;;;;;;8.33;4.53;;;17.70;97.50;;;18.42;100.00;97998.28;5026318;28;20473;-82
2023/06/26 02:49:51;;;;;;;8.33;4.87;;;17.60;97.30;;;18.36;100.00;97998.44;5025818;28;20457;-82
2023/06/26 02:52:21;;;;;;;9.03;5.37;;;17.60;97.40;;;18.34;100.00;97993.34;5025887;28;20477;-82
2023/06/26 02:54:50;;;;;;;6.50;4.40;;;17.60;97.60;;;18.40;100.00;97997.69;5025603;28;20473;-82
2023/06/26 02:57:19;;;;;;;6.57;4.90;;;17.60;97.50;;;18.35;100.00;98000.28;5023164;28;20466;-82
2023/06/26 02:59:48;;;;;;;7.20;4.67;;;17.50;97.70;;;18.31;100.00;97999.13;5025873;28;20512;-82
2023/06/26 03:02:19;;;;;;;7.50;5.00;;;17.60;97.50;;;18.24;100.00;98003.75;5023876;28;20481;-82
2023/06/26 03:04:49;;;;;;;7.50;4.80;;;17.50;97.60;;;18.18;100.00;98007.38;5025577;28;21175;-87
2023/06/26 03:07:18;;;;;;;8.33;4.37;;;17.40;97.70;;;18.18;100.00;98004.72;5026145;28;20466;-82
2023/06/26 03:09:47;;;;;;;7.90;4.60;;;17.40;97.80;;;18.13;100.00;98006.44;5024152;28;20470;-82
2023/06/26 03:12:15;;;;;;;7.60;4.60;;;17.40;97.80;;;18.14;100.00;98002.78;5023839;28;20477;-82
2023/06/26 03:14:44;;;;;;;8.10;4.93;;;17.40;98.00;;;18.17;100.00;97997.81;5024931;28;20462;-82
2023/06/26 03:17:15;;;;;;;7.27;4.77;;;17.30;98.00;;;18.18;100.00;98002.06;5024080;28;20892;-82
2023/06/26 03:19:45;;;;;;;6.37;4.43;;;17.30;98.10;;;18.14;100.00;98003.56;5024996;28;20494;-82
2023/06/26 03:22:14;;;;;;;9.87;4.80;;;17.30;97.90;;;18.13;100.00;98007.25;5023409;28;20813;-82
2023/06/26 03:24:44;;;;;;;6.37;4.63;;;17.30;97.70;;;18.07;100.00;97997.63;5024106;28;20530;-82
2023/06/26 03:27:13;;;;;;;7.90;4.67;;;17.30;97.80;;;18.02;100.00;97994.84;5024234;28;20497;-82
2023/06/26 03:29:46;;;;;;;7.50;4.67;;;17.30;97.80;;;18.00;100.00;97986.38;5025218;28;20458;-82
2023/06/26 03:32:16;;;;;;;6.93;4.70;;;17.20;98.00;;;17.90;100.00;97992.28;5025616;28;20481;-81
2023/06/26 03:34:47;;;;;;;7.20;4.50;;;17.20;98.00;;;17.89;100.00;97990.66;5025356;28;20494;-82
2023/06/26 03:37:15;;;;;;;6.50;4.30;;;17.20;98.40;;;17.86;100.00;97990.31;5026136;28;21038;-82
2023/06/26 03:39:45;;;;;;;9.10;5.23;;;17.10;98.20;;;17.90;100.00;97994.09;5023692;28;20497;-82
2023/06/26 03:42:14;;;;;;;6.83;4.73;;;17.10;98.50;;;17.93;100.00;97991.00;5023689;28;20466;-82
2023/06/26 03:44:44;;;;;;;6.63;5.00;;;17.10;98.30;;;17.87;100.00;97991.94;5025692;28;20474;-82
2023/06/26 03:47:13;;;;;;;9.13;5.60;;;17.10;98.30;;;18.00;100.00;97994.31;5024542;28;20567;-82
2023/06/26 03:49:42;;;;;;;10.00;5.40;;;17.10;98.60;;;18.08;100.00;97992.06;5024134;28;20458;-82
2023/06/26 03:52:15;;;;;;;6.90;4.57;;;17.20;98.30;;;18.04;100.00;97998.91;5024915;28;20512;-82
2023/06/26 03:54:44;;;;;;;7.07;4.67;;;17.20;98.30;;;18.00;100.00;97995.13;5025266;28;20470;-82
2023/06/26 03:57:14;;;;;;;7.83;4.90;;;17.20;98.50;;;17.97;100.00;97998.22;5023030;28;20458;-82
2023/06/26 03:59:43;;;;;;;8.17;4.77;;;17.20;98.40;;;17.96;100.00;98001.09;5025509;28;20494;-81
2023/06/26 04:02:12;;;;;;;9.33;5.50;;;17.10;98.30;;;17.96;100.00;97996.63;5019042;28;20458;-82
2023/06/26 04:04:41;;;;;;;13.97;7.43;;;17.10;98.40;;;17.88;100.00;97996.16;5025625;28;20516;-88
2023/06/26 04:07:11;;;;;;;11.33;7.00;;;17.10;98.30;;;17.83;100.00;97996.91;5019673;28;20477;-82
2023/06/26 04:09:40;;;;;;;9.80;5.97;;;17.10;98.60;;;17.88;100.00;97996.16;5021897;28;20462;-81
2023/06/26 04:12:10;;;;;;;8.60;5.50;;;17.10;98.60;;;17.92;100.00;97998.13;5021097;28;20462;-81
2023/06/26 04:14:39;;;;;;;6.63;4.50;;;17.10;98.40;;;17.91;100.00;97995.72;5021673;28;20841;-81
2023/06/26 04:17:08;;;;;;;9.10;4.63;;;17.00;98.50;;;17.89;100.00;98000.44;5025222;28;20470;-86
2023/06/26 04:19:37;;;;;;;8.30;5.90;;;17.10;98.50;;;17.91;100.00;98001.03;5017448;28;20501;-81
2023/06/26 04:22:05;;;;;;;8.20;5.10;;;17.10;98.50;;;17.86;100.00;98001.72;5020048;28;20470;-82
2023/06/26 04:24:38;;;;;;;5.63;4.47;;;17.10;98.40;;;17.83;100.00;98006.66;5019453;28;21365;-81
2023/06/26 04:27:07;;;;;;;7.10;5.37;;;17.10;98.50;;;17.86;100.00;98007.00;5019603;28;20493;-82
2023/06/26 04:29:36;;;;;;;9.43;5.83;;;17.10;98.60;;;17.89;100.00;98000.44;5022217;28;20465;-82
2023/06/26 04:32:07;;;;;;;6.17;4.70;;;17.10;98.60;;;17.92;100.00;98002.59;5020880;28;20476;-82
2023/06/26 04:34:40;;;;;;;8.17;5.00;;;17.10;98.60;;;17.92;100.00;98002.59;5022281;28;20565;-81
2023/06/26 04:37:10;;;;;;;6.30;4.60;;;17.10;98.50;;;17.99;100.00;98000.63;5020419;28;20457;-82
2023/06/26 04:39:41;;;;;;;6.60;4.70;;;17.10;98.70;;;18.00;100.00;98000.41;5027285;28;20485;-81
2023/06/26 04:42:11;;;;;;;7.30;4.90;;;17.10;98.30;;;18.01;100.00;97998.56;5024511;28;20565;-82
2023/06/26 04:44:40;;;;;;;9.10;5.20;;;17.20;98.10;;;17.98;100.00;98006.94;5024400;28;20483;-81
2023/06/26 04:47:09;;;;;;;8.30;4.80;;;17.20;98.00;;;18.00;100.00;98007.53;5023618;28;21055;-81
2023/06/26 04:49:38;;;;;;;9.40;5.37;;;17.20;98.00;;;18.04;100.00;98006.03;5023456;28;20542;-82
2023/06/26 04:52:07;;;;;;;9.00;4.87;;;17.20;98.10;;;18.05;100.00;98004.97;5026688;28;20465;-82
2023/06/26 04:54:35;;;;;;;7.50;5.00;;;17.30;98.10;;;18.02;100.00;98013.38;5023556;28;20461;-82
2023/06/26 04:57:08;;;;;;;7.50;5.20;;;17.30;98.00;;;18.13;100.00;98006.44;5024192;28;20485;-82
2023/06/26 04:59:37;;;;;;;8.63;4.97;;;17.30;98.30;;;18.18;100.00;98007.38;5023775;28;20966;-81
2023/06/26 05:02:07;;;;;;;8.67;5.20;;;17.30;98.20;;;18.24;100.00;97998.47;5024561;28;20466;-81
2023/06/26 05:04:35;;;;;;;7.70;5.20;;;17.40;98.10;;;18.28;100.00;97993.50;5024752;28;20470;-81
2023/06/26 05:07:05;;;;;;;10.40;4.70;;;17.40;98.10;;;18.31;100.00;97996.47;5026210;28;20801;-82
2023/06/26 05:09:33;;;;;;;7.93;5.10;;;17.40;97.90;;;18.34;100.00;97993.34;5026315;28;20544;-81
2023/06/26 05:12:05;;;;;;;6.33;4.77;;;17.50;97.90;;;18.37;100.00;97998.16;5023874;28;20490;-82
2023/06/26 05:14:34;;;;;;;7.53;5.13;;;17.60;97.80;;;18.34;100.00;97995.19;5025657;28;20482;-82
2023/06/26 05:17:02;;;;;;;6.63;5.13;;;17.50;97.70;;;18.35;100.00;97994.16;5025330;28;20462;-82
2023/06/26 05:19:31;;;;;;;6.83;4.87;;;17.60;97.80;;;18.45;100.00;97983.75;5023212;28;21019;-81
2023/06/26 05:22:03;;;;;;;10.13;6.30;;;17.60;97.90;;;18.51;100.00;97988.13;5026995;28;20462;-82
2023/06/26 05:24:34;;;;;;;8.40;5.20;;;17.70;98.00;;;18.57;100.00;97982.66;5023338;28;20470;-81
2023/06/26 05:27:06;;;;;;;10.63;5.53;;;17.70;97.80;;;18.55;100.00;97984.75;5021968;28;20476;-82
2023/06/26 05:29:36;;;;;;;9.60;5.90;;;17.80;97.80;;;18.60;100.00;97990.13;5022185;28;20458;-83
2023/06/26 05:32:08;;;;;;;6.60;4.60;;;17.80;97.80;;;18.67;100.00;97983.88;5025458;28;20501;-82
2023/06/26 05:34:39;;;;;;;8.00;5.20;;;17.80;97.70;;;18.73;100.00;97996.16;5024704;28;20461;-81
2023/06/26 05:37:09;;;;;;;8.10;5.93;;;17.90;97.80;;;18.80;100.00;97988.88;5027583;28;20537;-82
2023/06/26 05:39:39;;;;;;;7.60;4.83;;;17.90;97.70;;;18.85;100.00;97984.44;5026917;28;20493;-81
2023/06/26 05:42:12;;;;;;;8.73;5.43;;;18.00;97.90;;;18.90;100.00;97981.88;5024690;28;20470;-82
2023/06/26 05:44:41;;;;;;;7.60;5.00;;;18.10;98.20;;;18.97;100.00;97982.53;5026765;28;20557;-81
2023/06/26 05:47:09;;;;;;;7.00;5.20;;;18.10;97.90;;;19.04;100.00;97988.47;5025551;28;20470;-81
2023/06/26 05:49:38;;;;;;;7.70;5.03;;;18.20;97.80;;;19.10;100.00;97978.72;5027452;28;20504;-81
2023/06/26 05:52:10;;;;;;;12.67;5.10;;;18.20;98.00;;;19.17;100.00;97978.56;5027212;28;20462;-81
2023/06/26 05:54:40;;;;;;;6.60;4.87;;;18.30;98.00;;;19.26;100.00;97985.88;5025466;28;20524;-81
2023/06/26 05:57:13;;;;;;;8.03;4.67;;;18.30;98.00;;;19.28;100.00;97983.75;5024373;28;20455;-82
2023/06/26 05:59:45;;;;;;;6.27;4.57;;;18.40;97.80;;;19.35;100.00;97973.78;5023490;28;20468;-82
2023/06/26 06:02:16;;;;;;;7.77;5.43;;;18.50;98.00;;;19.42;100.00;97971.78;5021783;28;20500;-81
2023/06/26 06:04:45;;;;;;;6.77;5.13;;;18.50;97.90;;;19.48;100.00;97980.59;5022529;28;20478;-81
2023/06/26 06:07:14;;;;;;;7.43;5.10;;;18.60;98.20;;;19.54;100.00;97990.25;5023436;28;20469;-81
2023/06/26 06:09:43;;;;;;;10.20;6.30;;;18.70;97.90;;;19.61;100.00;97976.81;5022412;28;20462;-81
2023/06/26 06:12:13;;;;;;;6.67;4.57;;;18.70;97.80;;;19.68;100.00;97980.09;5018823;28;20474;-82
2023/06/26 06:14:42;;;;;;;9.17;5.23;;;18.80;97.90;;;19.76;100.00;97990.25;5021319;28;20477;-82
2023/06/26 06:17:10;;;;;;;6.30;4.80;;;18.80;97.70;;;19.82;100.00;97987.41;5019812;28;20465;-82
2023/06/26 06:19:39;;;;;;;7.00;4.70;;;18.90;97.70;;;19.88;100.00;97993.59;5022173;28;20489;-83
2023/06/26 06:22:08;;;;;;;6.73;5.00;;;19.00;97.80;;;19.96;100.00;97985.19;5021972;28;20870;-81
2023/06/26 06:24:36;;;;;;;21.00;13.50;;;19.00;97.80;;;20.02;100.00;98000.13;5022814;28;20465;-81
2023/06/26 06:27:05;;;;;;;11.53;7.03;;;19.10;98.00;;;20.10;100.00;97997.03;5020862;28;20570;-81
2023/06/26 06:29:35;;;;;;;9.87;6.03;;;19.20;97.90;;;20.17;100.00;97994.97;5023676;28;20829;-81
2023/06/26 06:32:04;;;;;;;7.07;4.93;;;19.30;98.10;;;20.22;100.00;98000.34;5024114;28;20469;-81
2023/06/26 06:34:34;;;;;;;8.13;5.50;;;19.30;98.00;;;20.30;100.00;98004.44;5024717;28;20881;-81
2023/06/26 06:37:05;;;;;;;8.50;4.80;;;19.40;98.40;;;20.37;100.00;97995.25;5024728;28;20473;-81
2023/06/26 06:39:34;;;;;;;8.10;5.70;;;19.50;98.20;;;20.43;100.00;98012.81;5024611;28;20474;-81
2023/06/26 06:42:04;;;;;;;7.50;4.80;;;19.50;98.10;;;20.49;100.00;98011.81;5025107;28;21070;-81
2023/06/26 06:44:33;;;;;;;11.47;5.40;;;19.60;98.10;;;20.56;100.00;98007.09;5026947;28;20458;-81
2023/06/26 06:47:04;;;;;;;7.77;5.43;;;19.70;98.10;;;20.62;100.00;98009.81;5024223;28;20466;-81
2023/06/26 06:49:32;;;;;;;7.47;5.03;;;19.70;98.30;;;20.68;100.00;98006.94;5025095;28;20461;-81
2023/06/26 06:52:02;;;;;;;8.93;5.83;;;19.80;98.30;;;20.75;100.00;98001.41;5023993;28;20466;-81
2023/06/26 06:54:31;;;;;;;11.67;5.50;;;19.90;98.30;;;20.81;100.00;98008.38;5022517;28;20472;-81
2023/06/26 06:57:00;;;;;;;15.57;9.43;;;20.00;98.30;;;20.88;100.00;98009.78;5022326;28;20476;-87
2023/06/26 06:59:29;;;;;;;27.00;16.80;;;20.00;98.00;;;20.97;100.00;98004.78;5022059;28;20511;-81
2023/06/26 07:01:58;;;;;;;9.57;5.60;;;20.10;98.10;;;21.04;100.00;98006.16;5019234;28;21196;-80
2023/06/26 07:04:28;;;;;;;9.90;5.83;;;20.20;98.20;;;21.12;100.00;98004.13;5023822;28;20541;-80
2023/06/26 07:06:57;;;;;;;9.53;5.30;;;20.30;98.10;;;21.19;100.00;98010.84;5022436;28;20457;-81
2023/06/26 07:09:26;;;;;;;9.83;5.17;;;20.30;98.20;;;21.28;100.00;98011.13;5024180;28;20941;-81
2023/06/26 07:11:55;;;;;;;8.13;5.27;;;20.40;98.50;;;21.40;100.00;98012.56;5022442;28;20486;-80
2023/06/26 07:14:24;;;;;;;6.53;4.57;;;20.60;98.70;;;21.51;100.00;98013.44;5023295;28;21270;-81
2023/06/26 07:16:53;;;;;;;15.67;4.57;;;20.80;98.40;;;21.70;100.00;98011.91;5023757;28;20555;-81
2023/06/26 07:19:22;;;;;;;7.03;4.27;;;20.90;98.10;;;21.85;100.00;98008.53;5023720;28;20458;-81
2023/06/26 07:21:52;;;;;;;9.00;4.07;;;21.10;97.90;;;22.05;96.09;98019.28;5022666;28;20489;-81
2023/06/26 07:24:21;;;;;;;5.67;3.87;;;21.40;97.10;;;22.17;93.38;98022.53;5023694;28;20462;-81
2023/06/26 07:26:50;;;;;;;5.90;4.10;;;21.50;96.60;;;22.24;91.84;98036.41;5020530;28;20573;-81
2023/06/26 07:29:19;;;;;;;5.50;4.23;;;21.60;96.40;;;22.34;89.87;98032.97;5020990;28;20496;-81
2023/06/26 07:31:48;;;;;;;76.50;42.80;;;21.80;95.90;;;22.36;89.65;98042.31;5024730;28;20766;-81
2023/06/26 07:34:17;;;;;;;5.00;3.77;;;21.70;95.90;;;22.41;88.23;98039.66;5020669;28;20464;-82
2023/06/26 07:36:45;;;;;;;7.70;3.90;;;21.80;95.50;;;22.45;87.86;98031.94;5022302;28;20492;-83
2023/06/26 07:39:15;;;;;;;9.10;3.63;;;21.70;95.40;;;22.52;88.15;98043.16;5020087;28;20979;-82
2023/06/26 07:41:51;;;;;;;4.60;3.23;;;21.80;95.60;;;22.54;88.26;98052.47;5020315;28;20522;-82
2023/06/26 07:44:20;;;;;;;5.47;3.40;;;21.80;95.60;;;22.64;86.08;98053.56;5020559;28;20462;-82
2023/06/26 07:46:49;;;;;;;8.47;3.90;;;21.90;95.10;;;22.71;85.34;98051.47;5020506;28;20520;-82
2023/06/26 07:49:18;;;;;;;5.40;3.80;;;22.00;95.00;;;22.80;83.37;98049.91;5020717;28;20466;-82
2023/06/26 07:51:47;;;;;;;5.53;3.17;;;22.20;94.50;;;22.87;83.39;98069.09;5021374;28;20480;-81
2023/06/26 07:54:18;;;;;;;5.70;3.77;;;22.20;94.50;;;22.95;81.20;98065.88;5021156;28;20473;-82
2023/06/26 07:56:58;;;;;;;9.20;3.23;;;22.30;94.10;;;23.01;79.97;98062.19;5020059;28;20516;-81
2023/06/26 07:59:29;;;;;;;5.33;3.57;;;22.40;93.80;;;23.06;79.45;98059.50;5023567;28;20468;-87
2023/06/26 08:01:59;;;;;;;5.23;3.33;;;22.40;93.70;;;23.11;78.54;98062.19;5021964;28;20494;-82
2023/06/26 08:04:31;;;;;;;4.83;3.37;;;22.40;93.70;;;23.15;78.08;98068.56;5021887;28;20473;-81
2023/06/26 08:07:03;;;;;;;11.23;2.97;;;22.50;93.40;;;23.21;78.00;98074.72;5020393;28;21170;-81
2023/06/26 08:09:34;;;;;;;4.50;3.30;;;22.50;93.20;;;23.24;76.67;98074.97;5023017;28;20497;-86
2023/06/26 08:12:03;;;;;;;5.73;3.40;;;22.60;93.10;;;23.27;76.33;98081.66;5023096;28;20508;-81
2023/06/26 08:14:34;;;;;;;5.83;3.30;;;22.70;92.80;;;23.30;75.78;98073.91;5029641;28;20501;-82
2023/06/26 08:17:02;;;;;;;5.27;3.93;;;22.70;92.70;;;23.36;76.63;98072.81;5028414;28;20473;-81
2023/06/26 08:19:31;;;;;;;5.37;3.50;;;22.70;93.00;;;23.37;76.39;98074.44;5027151;28;20466;-81
2023/06/26 08:21:59;;;;;;;4.60;3.47;;;22.70;92.80;;;23.40;75.93;98063.22;5027576;28;20587;-81
2023/06/26 08:24:28;;;;;;;3.97;2.90;;;22.80;92.80;;;23.40;75.40;98065.88;5027715;28;20469;-82
2023/06/26 08:26:58;;;;;;;6.33;3.87;;;22.90;92.70;;;23.42;75.50;98066.47;5028825;28;20552;-81
2023/06/26 08:29:27;;;;;;;4.73;3.30;;;22.80;92.50;;;23.47;75.40;98070.97;5027853;28;20461;-80
2023/06/26 08:31:55;;;;;;;6.40;3.60;;;22.80;92.80;;;23.49;75.78;98064.31;5028399;28;20999;-81
2023/06/26 08:34:25;;;;;;;4.77;3.30;;;22.80;92.80;;;23.48;75.82;98062.72;5027614;28;20866;-82
2023/06/26 08:36:54;;;;;;;8.00;3.17;;;22.80;92.90;;;23.52;75.87;98063.78;5026839;28;20520;-83
2023/06/26 08:39:22;;;;;;;6.83;3.50;;;22.80;92.90;;;23.55;76.23;98049.88;5027617;28;20473;-82
2023/06/26 08:41:52;;;;;;;4.47;3.07;;;22.90;93.00;;;23.57;76.02;98054.94;5026874;28;20516;-82
2023/06/26 08:44:24;;;;;;;5.30;3.53;;;22.90;93.00;;;23.60;76.79;98051.75;5027769;28;20492;-82
2023/06/26 08:46:53;;;;;;;5.63;3.30;;;22.90;93.30;;;23.63;76.36;98056.53;5027389;28;20929;-82
2023/06/26 08:49:30;;;;;;;5.23;3.80;;;23.00;93.20;;;23.69;76.60;98049.31;5027852;28;21515;-82
2023/06/26 08:52:04;;;;;;;5.60;3.30;;;23.00;93.30;;;23.73;77.68;98050.38;5027476;28;20476;-83
2023/06/26 08:54:41;;;;;;;8.23;3.17;;;23.10;93.50;;;23.83;76.75;98045.00;5027021;28;20462;-82
2023/06/26 08:57:10;;;;;;;7.17;3.77;;;23.20;93.20;;;24.01;74.04;98053.22;5027224;28;20453;-82
2023/06/26 08:59:41;;;;;;;5.90;4.00;;;23.40;92.50;;;24.06;75.15;98041.69;5028170;28;20541;-82
2023/06/26 09:02:11;;;;;;;5.50;4.23;;;23.40;93.00;;;24.10;74.29;98040.09;5027295;28;20508;-82
2023/06/26 09:04:41;;;;;;;27.07;5.73;;;23.40;92.80;;;24.20;70.72;98057.97;5026588;28;20523;-82
2023/06/26 09:07:09;;;;;;;5.87;4.00;;;23.50;91.70;;;24.26;69.59;98054.22;5027633;28;20473;-82
2023/06/26 09:09:39;;;;;;;7.13;4.40;;;23.60;91.50;;;24.35;69.08;98057.91;5027514;28;20576;-82
2023/06/26 09:12:09;;;;;;;6.30;4.17;;;23.60;91.20;;;24.41;67.61;98056.81;5025983;28;20537;-82
2023/06/26 09:14:40;;;;;;;4.93;3.60;;;23.70;91.10;;;24.44;66.77;98062.41;5027213;28;20468;-82
2023/06/26 09:17:09;;;;;;;10.53;4.10;;;23.80;90.90;;;24.49;67.43;98069.59;5027716;28;20547;-82
2023/06/26 09:19:39;;;;;;;6.60;3.60;;;23.90;91.10;;;24.56;66.66;98075.44;5027120;28;20465;-82
2023/06/26 09:22:15;;;;;;;14.00;3.97;;;23.90;90.80;;;24.59;65.23;98071.41;5027036;28;20537;-83
2023/06/26 09:24:45;;;;;;;6.90;3.17;;;24.00;90.50;;;24.63;63.87;98075.13;5028123;28;20458;-81
2023/06/26 09:27:14;;;;;;;4.47;3.13;;;24.10;90.20;;;24.64;61.93;98092.78;5026102;28;20477;-81
2023/06/26 09:29:47;;;;;;;15.30;3.10;;;24.10;89.00;;;24.66;61.73;98101.31;5026882;28;20458;-82
2023/06/26 09:32:16;;;;;;;12.10;6.37;;;24.00;88.80;;;24.69;61.44;98100.78;5022549;28;20478;-81
2023/06/26 09:34:45;;;;;;;4.70;3.33;;;24.10;89.00;;;24.69;61.22;98095.41;5021924;28;20480;-82
2023/06/26 09:37:14;;;;;;;6.40;3.03;;;24.10;88.60;;;24.68;60.74;98096.53;5025218;28;20492;-83
2023/06/26 09:39:44;;;;;;;5.50;3.60;;;24.10;88.10;;;24.70;61.06;98089.81;5026949;28;20976;-82
2023/06/26 09:42:15;;;;;;;5.47;3.33;;;24.10;88.30;;;24.77;60.94;98089.50;5026560;28;20504;-81
2023/06/26 09:44:47;;;;;;;6.00;2.90;;;24.20;88.40;;;24.72;59.85;98098.34;5026560;28;20454;-85
2023/06/26 09:47:19;;;;;;;5.20;3.00;;;24.20;87.40;;;24.74;60.08;98098.09;5026240;28;20458;-83
2023/06/26 09:49:50;;;;;;;12.03;3.40;;;24.20;88.00;;;24.78;60.46;98091.09;5027050;28;20834;-82
2023/06/26 09:52:19;;;;;;;4.40;3.40;;;24.20;88.30;;;24.80;60.58;98080.91;5027079;28;21212;-83
2023/06/26 09:54:48;;;;;;;5.87;4.07;;;24.30;88.20;;;24.79;60.44;98098.84;5026167;28;20498;-82
2023/06/26 09:57:19;;;;;;;7.30;4.40;;;24.30;88.10;;;24.80;60.46;98089.75;5024280;28;22773;-82
2023/06/26 09:59:51;;;;;;;5.70;4.17;;;24.30;87.90;;;24.81;59.51;98086.00;5027134;28;20820;-82
2023/06/26 10:02:20;;;;;;;6.10;4.20;;;24.30;87.70;;;24.77;58.82;98102.88;5027050;28;20494;-82
2023/06/26 10:04:49;;;;;;;5.80;3.67;;;24.20;86.80;;;24.78;59.17;98091.88;5026157;28;20465;-82
2023/06/26 10:07:19;;;;;;;6.70;3.60;;;24.20;87.00;;;24.81;58.93;98095.91;5026686;28;20470;-82
2023/06/26 10:09:50;;;;;;;7.80;4.60;;;24.30;87.30;;;24.85;58.27;98080.94;5026093;28;20486;-82
2023/06/26 10:12:27;;;;;;;8.23;3.70;;;24.30;86.40;;;24.86;57.26;98082.50;5022741;28;20991;-82
2023/06/26 10:15:00;;;;;;;5.00;4.07;;;24.30;86.10;;;24.90;57.37;98087.03;5024831;28;20826;-81
2023/06/26 10:17:36;;;;;;;6.63;4.60;;;24.30;86.10;;;24.93;57.65;98077.63;5023901;28;20471;-81
2023/06/26 10:20:09;;;;;;;6.57;3.80;;;24.30;86.30;;;24.95;57.87;98075.50;5024035;28;20468;-85
2023/06/26 10:22:45;;;;;;;5.43;3.30;;;24.30;86.80;;;24.99;56.86;98084.56;5024147;28;20481;-82
2023/06/26 10:25:20;;;;;;;5.70;4.10;;;24.40;86.50;;;25.00;57.11;98078.13;5025359;28;20469;-82
2023/06/26 10:27:56;;;;;;;6.83;3.70;;;24.50;85.80;;;25.02;57.85;98078.66;5024090;28;21029;-82